Time;durP1;ratioP1;P1;durP2;ratioP2;P2;SDS_P1;SDS_P2;PMS_P1;PMS_P2;Temp;Humidity;BMP_temperature;BMP_pressure;BME280_temperature;BME280_humidity;BME280_pressure;Samples;Min_cycle;Max_cycle;Signal;HPM_P1;HPM_P2
2022/12/28 00:04:33;;;;;;;13.63;10.45;;;;;;;4.36;100.00;101358.28;10551141;27;20043;-77
2022/12/28 00:09:33;;;;;;;19.92;9.25;;;;;;;4.35;100.00;101349.28;10566959;27;20055;-76
2022/12/28 00:14:34;;;;;;;17.23;11.07;;;;;;;4.37;100.00;101332.72;10584492;27;20039;-77
2022/12/28 00:19:35;;;;;;;13.48;10.43;;;;;;;4.39;100.00;101333.34;10548901;27;20046;-75
2022/12/28 00:24:35;;;;;;;16.92;12.15;;;;;;;4.41;100.00;101328.53;10568287;27;20035;-77
2022/12/28 00:29:36;;;;;;;12.55;10.38;;;;;;;4.40;100.00;101313.22;10584004;27;20059;-77
2022/12/28 00:34:36;;;;;;;14.18;11.05;;;;;;;4.42;100.00;101303.81;10546888;27;20716;-76
2022/12/28 00:39:37;;;;;;;15.20;11.15;;;;;;;4.41;100.00;101287.66;10545299;27;21068;-77
2022/12/28 00:44:37;;;;;;;14.73;11.73;;;;;;;4.36;100.00;101287.41;10582533;27;20039;-78
2022/12/28 00:49:38;;;;;;;14.65;11.73;;;;;;;4.24;100.00;101255.28;10562066;27;20119;-80
2022/12/28 00:54:39;;;;;;;12.57;11.38;;;;;;;4.35;100.00;101269.38;10543511;28;20036;-78
2022/12/28 00:59:39;;;;;;;13.93;11.75;;;;;;;4.31;100.00;101258.03;10559533;28;20498;-79
2022/12/28 01:04:40;;;;;;;16.58;12.40;;;;;;;4.34;100.00;101243.16;10542672;28;20043;-80
2022/12/28 01:09:40;;;;;;;17.17;13.73;;;;;;;4.31;100.00;101221.78;10551116;28;20044;-80
2022/12/28 01:14:41;;;;;;;14.50;13.13;;;;;;;4.28;100.00;101214.84;10524545;27;20101;-79
2022/12/28 01:19:41;;;;;;;16.55;12.98;;;;;;;4.29;100.00;101193.88;10569046;27;20036;-78
2022/12/28 01:24:42;;;;;;;19.08;15.45;;;;;;;4.33;100.00;101176.91;10549695;27;20049;-78
2022/12/28 01:29:43;;;;;;;16.05;12.93;;;;;;;4.42;100.00;101166.63;10584631;27;20031;-78
2022/12/28 01:34:43;;;;;;;14.23;12.80;;;;;;;4.49;100.00;101153.88;10567444;28;20115;-78
2022/12/28 01:39:44;;;;;;;14.95;13.02;;;;;;;4.42;100.00;101120.28;10561354;28;20040;-77
2022/12/28 01:44:46;;;;;;;15.02;13.57;;;;;;;4.56;100.00;101121.16;10504464;28;20058;-77
2022/12/28 01:50:08;;;;;;;14.90;13.30;;;;;;;4.55;100.00;101095.78;10523894;28;20376;-77
2022/12/28 01:55:33;;;;;;;18.05;13.50;;;;;;;4.53;100.00;101095.16;10541104;28;20399;-77
2022/12/28 02:00:34;;;;;;;16.45;14.70;;;;;;;4.54;100.00;101079.63;10544086;28;20043;-77
2022/12/28 02:05:48;;;;;;;18.33;13.38;;;;;;;4.58;100.00;101070.81;10547127;27;20399;-73
2022/12/28 02:10:48;;;;;;;16.73;15.00;;;;;;;4.57;100.00;101068.31;10582277;27;20445;-76
2022/12/28 02:15:49;;;;;;;15.43;14.15;;;;;;;4.60;100.00;101063.25;10564416;28;20061;-77
2022/12/28 02:21:05;;;;;;;23.63;15.77;;;;;;;4.61;100.00;101048.59;10580247;28;20556;-78
2022/12/28 02:26:18;;;;;;;19.50;14.32;;;;;;;4.63;100.00;101032.84;10532340;28;20046;-77
2022/12/28 02:31:44;;;;;;;15.73;14.05;;;;;;;4.65;100.00;101028.03;10541111;28;20055;-78
2022/12/28 02:36:56;;;;;;;18.05;14.95;;;;;;;4.71;100.00;101025.50;10541795;28;20036;-75
2022/12/28 02:41:57;;;;;;;17.20;15.55;;;;;;;4.72;100.00;101014.38;10538793;28;20036;-78
2022/12/28 02:52:55;;;;;;;17.65;15.98;;;;;;;4.73;100.00;100974.31;10523519;28;20419;-75
2022/12/28 02:58:23;;;;;;;20.90;16.25;;;;;;;4.76;100.00;100955.63;10537576;28;20131;-76
2022/12/28 03:03:50;;;;;;;19.17;17.15;;;;;;;4.76;100.00;100946.63;10539328;28;20044;-77
2022/12/28 03:09:09;;;;;;;18.70;16.38;;;;;;;4.69;100.00;100916.59;10537867;28;20504;-71
2022/12/28 03:14:16;;;;;;;19.58;17.50;;;;;;;4.76;100.00;100924.78;10537898;28;20036;-75
2022/12/28 03:35:22;;;;;;;20.48;17.25;;;;;;;4.87;100.00;100899.56;10564814;28;20032;-80
2022/12/28 03:40:26;;;;;;;21.83;17.85;;;;;;;4.89;100.00;100897.47;10540200;28;20119;-78
2022/12/28 03:45:40;;;;;;;19.10;17.40;;;;;;;4.93;100.00;100887.78;10552999;28;20040;-80
2022/12/28 03:50:42;;;;;;;21.15;18.73;;;;;;;4.95;100.00;100880.22;10534834;28;20691;-83
2022/12/28 03:55:43;;;;;;;24.20;20.83;;;;;;;5.01;100.00;100873.06;10499989;28;20032;-78
2022/12/28 04:00:46;;;;;;;20.85;18.88;;;;;;;4.98;100.00;100857.97;10519290;28;20031;-78
2022/12/28 04:05:47;;;;;;;21.75;19.50;;;;;;;5.05;100.00;100855.22;10555936;28;20039;-77
2022/12/28 04:10:47;;;;;;;23.15;20.77;;;;;;;4.99;100.00;100829.63;10578282;28;20035;-78
2022/12/28 04:16:01;;;;;;;21.70;19.63;;;;;;;5.12;100.00;100827.88;10561174;28;20040;-79
2022/12/28 04:21:02;;;;;;;24.83;20.05;;;;;;;5.12;100.00;100833.31;10568025;27;20039;-78
2022/12/28 04:26:05;;;;;;;21.08;18.90;;;;;;;5.16;100.00;100820.91;10583319;27;20043;-78
2022/12/28 04:31:06;;;;;;;20.00;18.20;;;;;;;5.25;100.00;100825.06;10547014;28;20089;-77
2022/12/28 04:36:07;;;;;;;21.70;19.40;;;;;;;5.30;100.00;100822.50;10543948;28;20536;-78
2022/12/28 04:41:08;;;;;;;20.17;18.23;;;;;;;5.32;100.00;100803.19;10564941;27;20076;-78
2022/12/28 04:46:10;;;;;;;19.20;17.60;;;;;;;5.41;100.00;100804.56;10569242;27;20105;-77
2022/12/28 04:51:22;;;;;;;19.17;17.38;;;;;;;5.43;100.00;100805.19;10585562;27;20039;-82
2022/12/28 04:56:23;;;;;;;17.70;16.23;;;;;;;5.49;100.00;100806.19;10569774;27;20403;-77
2022/12/28 05:01:24;;;;;;;18.77;17.17;;;;;;;5.53;100.00;100789.13;10561911;27;20043;-78
2022/12/28 05:06:24;;;;;;;18.02;16.42;;;;;;;5.55;100.00;100783.47;10542825;28;20043;-78
2022/12/28 05:11:26;;;;;;;18.05;16.42;;;;;;;5.61;100.00;100774.38;10542398;28;20446;-76
2022/12/28 05:16:27;;;;;;;17.88;16.52;;;;;;;5.66;100.00;100777.25;10525572;28;20044;-77
2022/12/28 05:21:27;;;;;;;18.10;16.42;;;;;;;5.71;100.00;100777.44;10542452;28;20036;-76
2022/12/28 05:26:28;;;;;;;17.25;15.77;;;;;;;5.74;100.00;100784.34;10544338;28;20067;-75
2022/12/28 05:31:29;;;;;;;17.35;15.90;;;;;;;5.79;100.00;100787.25;10540628;28;20115;-75
2022/12/28 05:36:31;;;;;;;16.75;15.32;;;;;;;5.83;100.00;100786.56;10541506;28;20043;-77
2022/12/28 05:41:31;;;;;;;17.92;16.33;;;;;;;5.83;100.00;100767.44;10539647;28;20044;-76
2022/12/28 05:46:32;;;;;;;19.67;17.98;;;;;;;5.91;100.00;100773.66;10523572;28;20043;-77
2022/12/28 05:51:33;;;;;;;19.08;17.45;;;;;;;5.96;100.00;100779.31;10541438;28;20038;-76
2022/12/28 05:56:33;;;;;;;19.00;17.35;;;;;;;5.95;100.00;100770.28;10541714;28;20032;-77
2022/12/28 06:01:37;;;;;;;20.52;18.63;;;;;;;6.07;100.00;100756.69;10522679;28;20048;-78
2022/12/28 06:06:38;;;;;;;20.30;18.50;;;;;;;6.04;100.00;100735.31;10540899;28;20476;-77
2022/12/28 06:11:38;;;;;;;20.15;18.35;;;;;;;6.18;100.00;100745.03;10540357;28;20047;-78
2022/12/28 06:16:40;;;;;;;20.38;18.48;;;;;;;6.21;100.00;100744.53;10541632;28;20036;-77
2022/12/28 06:21:41;;;;;;;19.80;18.10;;;;;;;6.26;100.00;100750.19;10558828;27;20043;-77
2022/12/28 06:26:41;;;;;;;20.63;18.83;;;;;;;6.30;100.00;100749.72;10582113;27;20039;-78
2022/12/28 06:31:46;;;;;;;21.08;19.17;;;;;;;6.35;100.00;100753.44;10547440;27;20061;-80
2022/12/28 06:36:48;;;;;;;21.98;19.98;;;;;;;6.42;100.00;100740.50;10582292;27;20023;-77
2022/12/28 06:41:49;;;;;;;22.40;20.40;;;;;;;6.47;100.00;100734.34;10579666;28;20046;-78
2022/12/28 06:46:49;;;;;;;22.02;20.05;;;;;;;6.50;100.00;100728.41;10563208;27;20055;-78
2022/12/28 06:51:50;;;;;;;22.33;20.30;;;;;;;6.51;100.00;100729.25;10521025;28;20062;-77
2022/12/28 06:56:50;;;;;;;22.42;20.35;;;;;;;6.47;100.00;100716.03;10539402;28;20039;-79
2022/12/28 07:01:51;;;;;;;21.88;19.88;;;;;;;6.59;100.00;100728.91;10538696;28;20491;-79
2022/12/28 07:06:51;;;;;;;21.90;19.75;;;;;;;6.63;100.00;100730.94;10522279;28;20471;-77
2022/12/28 07:11:51;;;;;;;22.45;20.20;;;;;;;6.63;100.00;100728.22;10558138;27;20035;-77
2022/12/28 07:16:52;;;;;;;23.50;21.30;;;;;;;6.73;100.00;100733.16;10562662;27;20046;-79
2022/12/28 07:21:52;;;;;;;24.45;22.13;;;;;;;6.73;100.00;100737.78;10581051;27;20055;-77
2022/12/28 07:26:53;;;;;;;22.95;20.75;;;;;;;6.90;100.00;100747.00;10563628;28;20036;-80
2022/12/28 07:31:53;;;;;;;23.38;21.27;;;;;;;6.97;100.00;100742.28;10563204;28;20071;-79
2022/12/28 07:36:54;;;;;;;24.30;21.80;;;;;;;6.69;100.00;100676.41;10581044;28;20027;-77
2022/12/28 07:41:54;;;;;;;23.33;21.17;;;;;;;7.07;100.00;100745.28;10558239;28;20066;-78
2022/12/28 07:46:55;;;;;;;23.63;21.38;;;;;;;7.10;100.00;100735.75;10557207;28;20517;-78
2022/12/28 07:51:55;;;;;;;23.70;21.30;;;;;;;7.16;100.00;100743.03;10564756;28;20423;-76
2022/12/28 07:56:56;;;;;;;25.50;23.00;;;;;;;7.22;100.00;100742.09;10588020;27;20070;-77
2022/12/28 08:01:56;;;;;;;25.13;22.63;;;;;;;7.28;100.00;100751.28;10554028;27;20040;-78
2022/12/28 08:06:57;;;;;;;27.02;24.35;;;;;;;7.38;100.00;100751.53;10553020;27;20039;-72
2022/12/28 08:11:57;;;;;;;28.88;25.60;;;;;;;7.44;100.00;100753.31;10537176;27;20060;-76
2022/12/28 08:16:58;;;;;;;27.40;24.65;;;;;;;7.50;100.00;100742.47;10586976;27;20032;-79
2022/12/28 08:21:58;;;;;;;28.27;25.55;;;;;;;7.55;100.00;100756.31;10561213;28;20506;-78
2022/12/28 08:26:59;;;;;;;28.48;25.77;;;;;;;7.56;100.00;100760.69;10527814;28;20036;-77
2022/12/28 08:31:59;;;;;;;26.70;24.50;;;;;;;7.64;100.00;100761.19;10527344;28;20089;-77
2022/12/28 08:37:00;;;;;;;24.98;22.83;;;;;;;7.66;100.00;100758.22;10527843;28;20035;-76
2022/12/28 08:42:00;;;;;;;26.67;24.27;;;;;;;7.70;100.00;100770.38;10562674;27;20035;-78
2022/12/28 08:47:01;;;;;;;27.83;25.15;;;;;;;7.66;100.00;100760.94;10568007;27;20040;-77
2022/12/28 08:52:01;;;;;;;25.95;23.65;;;;;;;7.74;100.00;100760.59;10569379;27;20475;-76
2022/12/28 08:57:02;;;;;;;29.35;26.60;;;;;;;7.75;100.00;100764.16;10568501;27;20046;-76
2022/12/28 09:02:02;;;;;;;28.35;25.67;;;;;;;7.76;100.00;100763.09;10556367;27;20100;-76
2022/12/28 09:07:03;;;;;;;27.70;25.33;;;;;;;7.78;100.00;100772.75;10542202;28;20040;-75
2022/12/28 09:12:06;;;;;;;28.50;25.70;;;;;;;7.78;100.00;100780.97;10557553;28;20146;-76
2022/12/28 09:17:06;;;;;;;28.27;25.67;;;;;;;7.77;100.00;100779.31;10526149;28;20068;-76
2022/12/28 09:22:07;;;;;;;25.48;23.10;;;;;;;7.72;100.00;100781.91;10544944;28;20059;-76
2022/12/28 09:27:07;;;;;;;24.92;22.58;;;;;;;7.75;100.00;100784.19;10540690;27;20088;-76
2022/12/28 09:32:08;;;;;;;24.88;22.35;;;;;;;7.77;100.00;100795.75;10568073;27;20042;-75
2022/12/28 09:37:08;;;;;;;22.42;20.23;;;;;;;7.80;100.00;100791.69;10561240;28;20400;-75
2022/12/28 09:42:20;;;;;;;22.65;20.58;;;;;;;7.79;100.00;100782.66;10561754;28;20044;-77
2022/12/28 09:47:46;;;;;;;22.50;20.40;;;;;;;7.80;100.00;100788.97;10563203;27;20128;-74
2022/12/28 09:53:05;;;;;;;23.23;21.02;;;;;;;7.81;100.00;100776.91;10546749;28;20091;-75
2022/12/28 09:58:13;;;;;;;23.35;20.95;;;;;;;7.81;100.00;100783.25;10563235;27;20081;-75
2022/12/28 10:03:15;;;;;;;23.58;21.40;;;;;;;7.77;100.00;100776.56;10530456;27;20074;-75
2022/12/28 10:08:18;;;;;;;24.90;22.63;;;;;;;7.82;100.00;100773.13;10553456;27;20047;-75
2022/12/28 10:13:21;;;;;;;26.02;23.23;;;;;;;7.87;100.00;100768.59;10527840;28;20040;-74
2022/12/28 10:18:23;;;;;;;25.08;22.60;;;;;;;7.84;100.00;100769.06;10540836;28;20036;-73
2022/12/28 10:23:25;;;;;;;27.10;23.17;;;;;;;7.86;100.00;100769.66;10540694;28;20438;-73
2022/12/28 10:28:29;;;;;;;24.20;21.55;;;;;;;7.80;100.00;100748.69;10557415;28;20040;-73
2022/12/28 10:33:30;;;;;;;24.48;21.05;;;;;;;7.95;100.00;100761.06;10528068;27;20063;-73
2022/12/28 10:38:31;;;;;;;23.13;20.60;;;;;;;7.93;100.00;100763.22;10575182;27;20043;-73
2022/12/28 10:43:34;;;;;;;25.80;22.20;;;;;;;7.96;100.00;100752.59;10522550;28;20053;-75
2022/12/28 10:48:37;;;;;;;23.63;21.15;;;;;;;8.03;100.00;100766.19;10522581;28;20036;-75
2022/12/28 10:53:40;;;;;;;24.27;21.83;;;;;;;8.03;100.00;100745.06;10522096;28;20379;-75
2022/12/28 10:58:45;;;;;;;23.90;21.80;;;;;;;8.02;100.00;100726.13;10557428;27;20039;-79
2022/12/28 11:03:54;;;;;;;24.40;22.20;;;;;;;8.07;100.00;100737.22;10542969;28;20064;-82
2022/12/28 11:09:14;;;;;;;22.58;20.70;;;;;;;8.15;100.00;100717.63;10561008;28;20062;-79
2022/12/28 11:14:17;;;;;;;23.25;21.35;;;;;;;8.15;100.00;100728.63;10559293;28;20495;-80
2022/12/28 11:19:17;;;;;;;22.88;20.65;;;;;;;8.16;100.00;100724.78;10559401;28;20420;-78
2022/12/28 11:24:18;;;;;;;23.73;21.67;;;;;;;8.07;100.00;100709.78;10525647;28;20040;-78
2022/12/28 11:29:18;;;;;;;23.02;21.02;;;;;;;8.20;100.00;100717.72;10547945;27;20051;-81
2022/12/28 11:34:21;;;;;;;21.92;20.23;;;;;;;8.16;100.00;100702.84;10531655;27;20035;-81
2022/12/28 11:39:24;;;;;;;21.05;19.15;;;;;;;8.23;100.00;100698.06;10556085;27;20487;-81
2022/12/28 11:44:27;;;;;;;20.63;19.02;;;;;;;8.23;100.00;100689.84;10588839;27;20032;-81
2022/12/28 11:49:33;;;;;;;18.30;17.00;;;;;;;8.19;100.00;100687.84;10590277;27;20036;-79
2022/12/28 11:54:38;;;;;;;17.67;16.48;;;;;;;8.16;100.00;100669.09;10572461;27;20031;-82
2022/12/28 11:59:38;;;;;;;17.77;16.55;;;;;;;8.30;100.00;100670.50;10554328;27;20540;-81
2022/12/28 12:04:42;;;;;;;17.40;16.33;;;;;;;8.26;100.00;100661.91;10586877;27;20044;-80
2022/12/28 12:09:44;;;;;;;16.27;15.27;;;;;;;8.25;100.00;100663.00;10571473;27;20455;-79
2022/12/28 12:14:51;;;;;;;16.85;15.75;;;;;;;8.31;100.00;100665.84;10558196;27;20035;-79
2022/12/28 12:19:55;;;;;;;16.73;15.65;;;;;;;8.23;100.00;100645.13;10569848;27;20036;-78
2022/12/28 12:25:19;;;;;;;16.65;15.55;;;;;;;8.29;100.00;100664.19;10571341;27;20127;-78
2022/12/28 12:30:20;;;;;;;16.45;15.25;;;;;;;8.26;100.00;100656.44;10587255;27;20031;-78
2022/12/28 12:35:25;;;;;;;16.55;15.40;;;;;;;8.27;100.00;100647.13;10537872;28;20036;-79
2022/12/28 12:41:03;;;;;;;17.65;16.38;;;;;;;8.27;100.00;100641.66;10542424;28;20040;-79
2022/12/28 12:46:10;;;;;;;17.25;16.10;;;;;;;8.31;100.00;100638.41;10555734;27;20048;-79
2022/12/28 12:51:31;;;;;;;18.40;17.10;;;;;;;8.31;100.00;100627.44;10579692;27;20051;-80
2022/12/28 12:56:49;;;;;;;16.80;15.65;;;;;;;8.22;100.00;100627.00;10563427;27;20036;-79
2022/12/28 13:02:10;;;;;;;17.27;15.80;;;;;;;8.23;100.00;100620.44;10563143;28;20082;-80
2022/12/28 13:07:26;;;;;;;17.38;16.23;;;;;;;8.24;100.00;100600.97;10566677;27;20486;-80
2022/12/28 13:12:26;;;;;;;17.40;16.25;;;;;;;8.16;100.00;100593.16;10562221;28;20507;-81
2022/12/28 13:17:27;;;;;;;16.88;15.77;;;;;;;8.20;100.00;100588.84;10564438;27;20036;-82
2022/12/28 13:22:32;;;;;;;17.83;16.27;;;;;;;8.13;100.00;100576.38;10542325;28;20054;-79
2022/12/28 13:27:34;;;;;;;18.10;16.80;;;;;;;8.16;100.00;100573.97;10528204;27;20044;-83
2022/12/28 13:32:34;;;;;;;16.65;15.55;;;;;;;8.20;100.00;100572.38;10560947;27;20063;-78
2022/12/28 13:37:35;;;;;;;16.40;15.40;;;;;;;8.11;100.00;100573.88;10564391;27;20311;-80
2022/12/28 13:43:17;;;;;;;15.77;14.70;;;;;;;7.85;100.00;100521.31;10573558;27;20510;-80
2022/12/28 13:48:18;;;;;;;16.20;15.07;;;;;;;8.07;100.00;100559.00;10577581;27;20419;-79
2022/12/28 13:53:20;;;;;;;14.63;13.73;;;;;;;8.14;100.00;100565.16;10583904;27;20050;-80
2022/12/28 13:58:26;;;;;;;15.85;14.75;;;;;;;8.06;100.00;100557.31;10567618;28;20409;-79
2022/12/28 14:03:26;;;;;;;15.93;14.93;;;;;;;8.13;100.00;100570.91;10582179;27;20040;-81
2022/12/28 14:08:27;;;;;;;15.27;14.38;;;;;;;8.07;100.00;100557.06;10583912;27;20411;-79
2022/12/28 14:13:29;;;;;;;16.23;15.40;;;;;;;8.05;100.00;100558.41;10583107;27;20036;-80
2022/12/28 14:18:30;;;;;;;15.68;14.80;;;;;;;8.04;100.00;100557.59;10564750;27;20043;-81
2022/12/28 14:23:32;;;;;;;15.82;14.77;;;;;;;8.04;100.00;100548.50;10580891;27;20036;-79
2022/12/28 14:28:47;;;;;;;14.57;13.77;;;;;;;7.97;100.00;100523.16;10544397;27;20028;-77
2022/12/28 14:33:54;;;;;;;14.50;13.80;;;;;;;8.02;100.00;100521.34;10542835;28;20097;-79
2022/12/28 14:38:55;;;;;;;;;;;;;;;7.96;100.00;100522.34;10561216;27;20046;-79
2022/12/28 14:43:59;;;;;;;13.60;12.90;;;;;;;7.96;100.00;100510.53;10561991;27;19916;-79
2022/12/28 14:49:20;;;;;;;14.25;13.43;;;;;;;7.91;100.00;100470.16;10561279;28;20043;-78
2022/12/28 14:54:21;;;;;;;14.45;13.38;;;;;;;7.95;100.00;100459.53;10563206;28;20063;-78
2022/12/28 14:59:30;;;;;;;15.98;14.77;;;;;;;7.84;100.00;100423.72;10519263;28;20073;-79
2022/12/28 15:04:35;;;;;;;15.65;14.50;;;;;;;7.83;100.00;100424.81;10544026;28;20047;-78
2022/12/28 15:09:36;;;;;;;15.45;14.45;;;;;;;7.81;100.00;100461.75;10557082;28;20364;-78
2022/12/28 15:14:36;;;;;;;15.85;14.77;;;;;;;7.76;100.00;100435.06;10558547;27;20040;-78
2022/12/28 15:19:37;;;;;;;15.13;14.13;;;;;;;7.83;100.00;100429.44;10559505;28;20040;-78
2022/12/28 15:24:39;;;;;;;15.63;14.60;;;;;;;7.84;100.00;100426.47;10563352;28;20123;-81
2022/12/28 15:29:39;;;;;;;16.45;15.30;;;;;;;7.90;100.00;100410.94;10568448;28;20099;-79
2022/12/28 15:34:40;;;;;;;18.13;16.83;;;;;;;7.86;100.00;100418.81;10542939;28;20043;-82
2022/12/28 15:39:40;;;;;;;19.00;17.38;;;;;;;7.87;100.00;100415.00;10541875;28;20040;-82
2022/12/28 15:44:41;;;;;;;19.73;17.52;;;;;;;7.89;100.00;100399.13;10560273;28;20032;-81
2022/12/28 15:49:41;;;;;;;19.60;17.98;;;;;;;7.83;100.00;100380.97;10572196;28;20032;-81
2022/12/28 15:54:42;;;;;;;18.63;16.85;;;;;;;7.88;100.00;100382.94;10566754;28;20032;-83
2022/12/28 15:59:42;;;;;;;19.23;17.15;;;;;;;7.81;100.00;100366.69;10557764;28;20035;-69
2022/12/28 16:04:42;;;;;;;19.27;17.80;;;;;;;7.83;100.00;100360.91;10549292;28;20463;-80
2022/12/28 16:09:43;;;;;;;20.52;18.80;;;;;;;7.69;100.00;100330.31;10559178;28;20380;-78
2022/12/28 16:14:45;;;;;;;19.10;17.50;;;;;;;7.84;100.00;100354.38;10562959;27;20064;-78
2022/12/28 16:19:45;;;;;;;20.48;18.15;;;;;;;7.92;100.00;100331.19;10583561;27;20330;-76
2022/12/28 16:24:47;;;;;;;18.95;17.20;;;;;;;7.89;100.00;100333.34;10587031;27;20035;-76
2022/12/28 16:29:48;;;;;;;18.92;17.27;;;;;;;7.92;100.00;100320.22;10586850;27;20032;-78
2022/12/28 16:34:48;;;;;;;18.10;16.70;;;;;;;7.88;100.00;100301.56;10588192;27;20036;-77
2022/12/28 16:39:48;;;;;;;19.50;17.90;;;;;;;7.88;100.00;100279.63;10585880;27;20040;-79
2022/12/28 16:44:49;;;;;;;18.58;16.17;;;;;;;7.91;100.00;100293.91;10586875;27;20039;-81
2022/12/28 16:49:50;;;;;;;18.05;16.45;;;;;;;7.87;100.00;100293.56;10588788;27;20047;-84
2022/12/28 16:54:51;;;;;;;19.88;17.63;;;;;;;7.84;100.00;100275.72;10547444;27;20487;-81
2022/12/28 16:59:51;;;;;;;18.95;17.23;;;;;;;7.87;100.00;100277.97;10581377;27;20062;-86
2022/12/28 17:04:52;;;;;;;18.00;16.60;;;;;;;7.84;100.00;100283.94;10585429;27;20032;-83
2022/12/28 17:09:52;;;;;;;18.15;16.85;;;;;;;7.81;100.00;100281.72;10584637;27;20039;-83
2022/12/28 17:14:53;;;;;;;17.98;16.77;;;;;;;7.77;100.00;100244.94;10584296;27;20099;-86
2022/12/28 17:19:53;;;;;;;16.98;15.55;;;;;;;7.75;100.00;100230.66;10586353;27;20032;-86
2022/12/28 17:24:54;;;;;;;17.75;16.27;;;;;;;7.73;100.00;100230.06;10585019;27;20062;-85
2022/12/28 17:29:54;;;;;;;18.48;16.83;;;;;;;7.63;100.00;100210.75;10572447;27;20035;-79
2022/12/28 17:34:54;;;;;;;17.25;15.98;;;;;;;7.68;100.00;100219.03;10584851;27;20057;-82
2022/12/28 17:39:55;;;;;;;17.35;15.90;;;;;;;7.70;100.00;100207.81;10582573;27;20036;-82
2022/12/28 17:44:55;;;;;;;17.58;16.02;;;;;;;7.65;100.00;100195.72;10583776;27;20054;-80
2022/12/28 17:49:56;;;;;;;17.95;16.35;;;;;;;7.64;100.00;100190.47;10549755;28;20040;-79
2022/12/28 17:54:56;;;;;;;16.95;15.85;;;;;;;7.67;100.00;100207.25;10584496;27;20047;-79
2022/12/28 17:59:57;;;;;;;18.45;16.58;;;;;;;7.65;100.00;100183.94;10582616;27;20035;-83
2022/12/28 18:04:57;;;;;;;17.90;16.50;;;;;;;7.61;100.00;100182.78;10583430;27;20112;-83
2022/12/28 18:09:58;;;;;;;17.15;15.82;;;;;;;7.59;100.00;100160.28;10571469;27;20057;-82
2022/12/28 18:14:58;;;;;;;18.85;17.17;;;;;;;7.55;100.00;100148.16;10599050;27;20445;-79
2022/12/28 18:19:59;;;;;;;19.63;17.92;;;;;;;7.52;100.00;100137.69;10582535;27;20054;-81
2022/12/28 18:24:59;;;;;;;19.70;17.73;;;;;;;7.46;100.00;100113.00;10583475;27;20040;-83
2022/12/28 18:30:00;;;;;;;19.08;17.40;;;;;;;7.46;100.00;100118.47;10581787;27;20031;-80
2022/12/28 18:35:01;;;;;;;18.00;16.70;;;;;;;7.46;100.00;100085.59;10576175;27;20039;-83
2022/12/28 18:40:01;;;;;;;18.88;17.58;;;;;;;7.38;100.00;100077.81;10577635;27;20028;-80
2022/12/28 18:45:02;;;;;;;19.90;18.25;;;;;;;7.36;100.00;100068.19;10582903;28;20047;-81
2022/12/28 18:50:03;;;;;;;19.35;17.73;;;;;;;7.40;100.00;100066.59;10581085;28;20062;-77
2022/12/28 18:55:03;;;;;;;19.10;17.45;;;;;;;7.39;100.00;100051.25;10563580;28;20238;-83
2022/12/28 19:00:05;;;;;;;19.02;17.38;;;;;;;7.33;100.00;100039.41;10566859;27;20065;-82
2022/12/28 19:05:05;;;;;;;19.40;17.65;;;;;;;7.40;100.00;100051.03;10582746;28;20043;-82
2022/12/28 19:10:14;;;;;;;19.45;18.00;;;;;;;7.43;100.00;100036.81;10580369;28;20039;-81
2022/12/28 19:15:15;;;;;;;19.48;18.05;;;;;;;7.46;100.00;100030.84;10580368;28;20031;-79
2022/12/28 19:20:15;;;;;;;19.98;18.27;;;;;;;7.47;100.00;100018.78;10572328;28;20058;-83
2022/12/28 19:25:16;;;;;;;19.60;18.10;;;;;;;7.42;100.00;99995.97;10559403;28;20039;-82
2022/12/28 19:30:16;;;;;;;19.60;18.13;;;;;;;7.44;100.00;99989.19;10550419;28;20047;-81
2022/12/28 19:35:17;;;;;;;20.55;18.80;;;;;;;7.51;100.00;100015.56;10563372;28;20042;-83
2022/12/28 19:40:17;;;;;;;20.83;19.13;;;;;;;7.50;100.00;99991.97;10563937;28;20046;-85
2022/12/28 19:45:18;;;;;;;20.85;19.35;;;;;;;7.47;100.00;99982.34;10565016;28;20044;-84
2022/12/28 19:50:19;;;;;;;21.38;19.65;;;;;;;7.46;100.00;99976.06;10568218;27;20035;-81
2022/12/28 19:55:19;;;;;;;20.55;18.60;;;;;;;7.47;100.00;99965.94;10573583;28;20047;-75
2022/12/28 20:00:20;;;;;;;21.35;19.77;;;;;;;7.50;100.00;99972.78;10590445;27;20518;-83
2022/12/28 20:05:20;;;;;;;20.85;19.25;;;;;;;7.54;100.00;99998.59;10570739;27;20062;-84
2022/12/28 20:10:21;;;;;;;20.70;19.30;;;;;;;7.54;100.00;99962.97;10589535;27;20044;-83
2022/12/28 20:15:21;;;;;;;21.13;19.65;;;;;;;7.54;100.00;99973.94;10571860;27;20044;-84
2022/12/28 20:20:22;;;;;;;20.70;19.30;;;;;;;7.53;100.00;99953.13;10589136;27;20046;-81
2022/12/28 20:25:22;;;;;;;21.52;19.77;;;;;;;7.59;100.00;99952.09;10603799;27;20040;-82
2022/12/28 20:30:23;;;;;;;22.48;20.73;;;;;;;7.59;100.00;99958.41;10588659;27;20027;-83
2022/12/28 20:35:25;;;;;;;22.15;20.30;;;;;;;7.62;100.00;99957.03;10587843;27;20040;-81
2022/12/28 20:40:25;;;;;;;21.85;20.25;;;;;;;7.56;100.00;99933.41;10569477;27;20095;-80
2022/12/28 20:45:26;;;;;;;20.83;19.45;;;;;;;7.59;100.00;99930.19;10586537;27;20036;-80
2022/12/28 20:50:26;;;;;;;23.58;21.88;;;;;;;7.64;100.00;99936.53;10586110;27;20047;-79
2022/12/28 20:55:27;;;;;;;22.55;20.77;;;;;;;7.60;100.00;99915.38;10587132;27;20072;-73
2022/12/28 21:00:27;;;;;;;21.20;19.70;;;;;;;7.67;100.00;99926.97;10573071;28;21171;-86
2022/12/28 21:05:28;;;;;;;21.73;20.13;;;;;;;7.72;100.00;99928.94;10544717;27;20039;-82
2022/12/28 21:10:28;;;;;;;20.77;19.27;;;;;;;7.75;100.00;99914.72;10561699;27;20491;-84
2022/12/28 21:15:29;;;;;;;21.80;19.92;;;;;;;7.79;100.00;99908.47;10562359;27;20035;-82
2022/12/28 21:20:30;;;;;;;20.77;19.38;;;;;;;7.81;100.00;99914.53;10574809;27;20066;-83
2022/12/28 21:25:34;;;;;;;21.88;20.25;;;;;;;7.85;100.00;99907.44;10582355;27;20066;-80
2022/12/28 21:30:34;;;;;;;20.70;19.10;;;;;;;7.83;100.00;99893.16;10558274;27;20044;-80
2022/12/28 21:35:35;;;;;;;20.95;19.17;;;;;;;7.95;100.00;99894.91;10554680;28;20031;-78
2022/12/28 21:40:35;;;;;;;21.13;19.63;;;;;;;7.98;100.00;99888.88;10566909;27;20089;-76
2022/12/28 21:45:36;;;;;;;21.15;19.65;;;;;;;8.02;100.00;99882.63;10584884;27;20047;-76
2022/12/28 21:50:36;;;;;;;21.27;19.88;;;;;;;8.13;100.00;99893.69;10582689;27;20047;-85
2022/12/28 21:55:43;;;;;;;21.83;20.27;;;;;;;8.19;100.00;99873.44;10582839;27;20036;-81
2022/12/28 22:06:03;;;;;;;20.73;19.50;;;;;;;8.29;100.00;99874.34;10554121;27;20035;-84
2022/12/28 22:16:22;;;;;;;21.40;20.10;;;;;;;8.01;100.00;99800.66;10582298;28;20048;-82
2022/12/28 22:21:23;;;;;;;22.02;20.63;;;;;;;8.44;100.00;99853.63;10584826;27;20070;-83
2022/12/28 22:26:23;;;;;;;22.35;20.83;;;;;;;8.48;100.00;99854.75;10583858;27;20058;-84
2022/12/28 22:31:24;;;;;;;21.73;20.40;;;;;;;8.55;100.00;99858.06;10563766;27;20036;-81
2022/12/28 22:36:25;;;;;;;22.20;20.85;;;;;;;8.47;100.00;99842.09;10566839;27;20042;-81
2022/12/28 22:41:26;;;;;;;22.35;20.75;;;;;;;8.56;100.00;99845.16;10556993;27;20058;-70
2022/12/28 22:46:26;;;;;;;23.83;21.85;;;;;;;8.58;100.00;99851.19;10571553;27;20091;-82
2022/12/28 22:51:27;;;;;;;23.92;22.33;;;;;;;8.58;100.00;99845.72;10579278;27;20044;-81
2022/12/28 22:56:27;;;;;;;24.40;22.80;;;;;;;8.63;100.00;99841.09;10559311;28;20410;-84
2022/12/28 23:01:28;;;;;;;24.63;22.92;;;;;;;8.65;100.00;99841.66;10538555;27;20055;-82
2022/12/28 23:06:28;;;;;;;23.77;22.17;;;;;;;8.68;100.00;99821.91;10543310;28;20055;-83
2022/12/28 23:11:41;;;;;;;22.92;21.27;;;;;;;8.66;100.00;99815.03;10548191;28;20040;-82
2022/12/28 23:16:41;;;;;;;21.85;20.45;;;;;;;8.67;100.00;99809.28;10561009;28;20060;-83